createdAt,value
2023-03-13T01:21:50.955Z,99981.22
2023-03-13T01:27:03.390Z,99846.63
2023-03-13T01:32:16.213Z,99862.25
2023-03-13T01:37:25.810Z,99861.88
2023-03-13T01:42:31.023Z,99925.69
2023-03-13T01:47:38.059Z,99909.69
2023-03-13T01:52:52.547Z,99897.78
2023-03-13T01:58:03.485Z,99788.50
2023-03-13T02:08:51.180Z,99782.09
2023-03-13T02:13:56.116Z,99785.31
2023-03-13T02:18:59.125Z,99768.31
2023-03-13T02:24:14.159Z,99815.38
2023-03-13T02:29:19.503Z,99805.38
2023-03-13T02:34:27.206Z,99709.06
2023-03-13T02:39:32.622Z,99782.81
2023-03-13T02:44:42.183Z,99713.59
2023-03-13T02:49:45.772Z,99625.41
2023-03-13T02:54:52.638Z,99755.00
2023-03-13T02:59:59.556Z,99727.06
2023-03-13T03:05:03.309Z,99636.78
2023-03-13T03:10:07.822Z,99616.00
2023-03-13T03:15:16.137Z,99664.13
2023-03-13T03:20:21.743Z,99710.31
2023-03-13T03:25:25.848Z,99608.41
2023-03-13T03:30:30.846Z,99714.88
2023-03-13T03:35:38.334Z,99719.94
2023-03-13T03:40:41.835Z,99697.03
2023-03-13T03:45:46.125Z,99689.41
2023-03-13T03:50:49.582Z,99569.88
2023-03-13T03:55:53.427Z,99714.78
2023-03-13T04:00:59.715Z,99724.59
2023-03-13T04:06:03.662Z,99653.16
2023-03-13T04:11:06.544Z,99708.00
2023-03-13T04:16:15.013Z,99572.81
2023-03-13T04:21:19.105Z,99668.28
2023-03-13T04:26:29.413Z,99617.88
2023-03-13T04:31:36.195Z,99684.63
2023-03-13T04:36:57.043Z,99661.19
2023-03-13T04:42:18.801Z,99680.59
2023-03-13T04:47:41.191Z,99672.94
2023-03-13T04:53:03.174Z,99660.22
2023-03-13T04:58:19.105Z,99657.19
2023-03-13T05:03:44.185Z,99659.03
2023-03-13T05:09:07.586Z,99634.44
2023-03-13T05:14:32.645Z,99617.72
2023-03-13T05:20:05.142Z,99632.50
2023-03-13T05:25:23.525Z,99637.00
2023-03-13T05:30:27.183Z,99598.19
2023-03-13T05:35:46.989Z,99630.88
2023-03-13T05:41:24.893Z,99595.13
2023-03-13T05:46:46.065Z,99624.16
2023-03-13T05:52:09.212Z,99625.53
2023-03-13T05:57:22.129Z,99594.97
2023-03-13T06:02:48.287Z,99545.56
2023-03-13T06:07:58.668Z,99567.91
2023-03-13T06:13:17.250Z,99612.28
2023-03-13T06:18:27.516Z,99532.56
2023-03-13T06:23:35.173Z,99527.81
2023-03-13T06:28:42.138Z,99604.28
2023-03-13T06:33:45.227Z,99552.88
2023-03-13T06:38:49.638Z,99618.94
2023-03-13T06:43:53.159Z,99511.91
2023-03-13T06:48:55.847Z,99558.72
2023-03-13T06:54:00.184Z,99604.34
2023-03-13T06:59:03.451Z,99559.03
2023-03-13T07:04:06.321Z,99552.22
2023-03-13T07:09:22.166Z,99616.88
2023-03-13T07:14:26.092Z,99443.75
2023-03-13T07:19:29.155Z,99517.38
2023-03-13T07:24:33.598Z,99493.63
2023-03-13T07:29:36.400Z,99387.31
2023-03-13T07:34:44.630Z,99471.03
2023-03-13T07:39:49.649Z,99544.63
2023-03-13T07:44:55.708Z,99177.88
2023-03-13T07:50:02.940Z,99555.72
2023-03-13T07:55:10.140Z,99568.03
2023-03-13T08:00:20.829Z,99590.91
2023-03-13T08:05:24.553Z,99576.78
2023-03-13T08:10:30.049Z,99363.88
2023-03-13T08:15:34.796Z,99461.03
2023-03-13T08:20:37.568Z,99581.00
2023-03-13T08:25:43.685Z,99589.19
2023-03-13T08:30:46.492Z,99566.50
2023-03-13T08:35:49.252Z,99491.28
2023-03-13T08:40:57.722Z,99546.00
2023-03-13T08:46:36.989Z,99431.94
2023-03-13T08:51:52.739Z,99579.09
2023-03-13T08:56:59.871Z,99512.28
2023-03-13T09:02:03.628Z,99527.88
2023-03-13T09:07:08.053Z,99216.94
2023-03-13T09:12:41.241Z,99331.41
2023-03-13T09:18:06.821Z,99554.06
2023-03-13T09:23:11.645Z,99554.78
2023-03-13T09:28:27.645Z,99260.44
2023-03-13T09:34:29.832Z,99457.50
2023-03-13T09:39:39.797Z,99535.00
2023-03-13T09:45:22.198Z,99468.50
2023-03-13T10:05:26.791Z,99080.84
2023-03-13T10:30:32.927Z,99454.31
2023-03-13T10:35:37.383Z,99443.19
2023-03-13T10:40:40.316Z,99428.34
2023-03-13T10:45:44.205Z,99448.34
2023-03-13T10:50:49.010Z,99436.03
2023-03-13T10:55:55.892Z,99431.84
2023-03-13T11:01:17.073Z,99424.00
2023-03-13T11:06:27.047Z,99410.88
2023-03-13T11:11:31.021Z,99422.34
2023-03-13T11:16:43.480Z,99405.34
2023-03-13T11:21:58.179Z,99399.03
2023-03-13T11:27:11.445Z,99388.66
2023-03-13T11:32:23.825Z,99374.34
2023-03-13T11:37:29.772Z,99348.66
2023-03-13T11:42:46.096Z,99366.13
2023-03-13T11:48:00.040Z,99365.13
2023-03-13T11:53:17.961Z,99340.81
2023-03-13T11:58:43.043Z,99338.41
2023-03-13T12:03:59.509Z,99340.88
2023-03-13T12:09:10.506Z,99331.69
2023-03-13T12:14:18.024Z,99314.75
2023-03-13T12:19:30.612Z,99316.53
2023-03-13T12:24:38.711Z,99319.31
2023-03-13T12:29:49.751Z,99292.63
2023-03-13T12:35:01.655Z,99281.97
2023-03-13T12:40:17.265Z,99287.28
2023-03-13T12:45:24.184Z,99273.72
2023-03-13T12:50:41.569Z,99248.66
2023-03-13T12:56:04.210Z,99261.97
2023-03-13T13:01:08.686Z,99250.34
2023-03-13T13:06:14.772Z,99251.22
2023-03-13T13:11:41.733Z,99242.78
2023-03-13T13:16:46.128Z,99237.81
2023-03-13T13:22:28.764Z,99210.38
2023-03-13T13:27:47.398Z,99243.44
2023-03-13T13:32:51.147Z,99215.50
2023-03-13T13:38:36.473Z,99221.13
2023-03-13T13:43:40.440Z,99228.09
2023-03-13T13:48:43.176Z,99218.63
2023-03-13T13:53:50.409Z,99198.69
2023-03-13T13:58:58.143Z,99194.22
2023-03-13T14:04:12.408Z,99201.06
2023-03-13T14:09:29.288Z,99203.88
2023-03-13T14:14:31.858Z,99208.94
2023-03-13T14:19:39.768Z,99189.28
2023-03-13T14:24:58.065Z,99181.66
2023-03-13T14:30:01.454Z,99146.75
2023-03-13T14:35:06.042Z,99158.63
2023-03-13T14:40:19.900Z,99124.56
2023-03-13T14:45:28.667Z,99158.97
2023-03-13T14:50:31.300Z,99147.72
2023-03-13T14:55:40.341Z,99139.34
2023-03-13T15:00:44.816Z,99137.00
2023-03-13T15:05:49.939Z,99124.78
2023-03-13T15:10:54.029Z,99140.00
2023-03-13T15:15:56.650Z,99122.97
2023-03-13T15:21:01.001Z,99090.16
2023-03-13T15:26:05.644Z,99069.56
2023-03-13T15:31:12.850Z,99084.28
2023-03-13T15:36:15.423Z,99081.66
2023-03-13T15:41:19.622Z,99070.94
2023-03-13T15:46:22.737Z,99017.81
2023-03-13T15:51:27.612Z,99040.16
2023-03-13T15:56:36.094Z,99023.75
2023-03-13T16:01:38.849Z,99004.78
2023-03-13T16:06:41.465Z,98914.69
2023-03-13T16:11:46.033Z,99001.22
2023-03-13T16:16:49.778Z,98982.91
2023-03-13T16:21:52.590Z,98977.31
2023-03-13T16:26:56.453Z,98979.50
2023-03-13T16:31:59.052Z,98976.38
2023-03-13T16:37:01.626Z,98971.41
2023-03-13T16:42:05.795Z,98968.31
2023-03-13T16:47:21.876Z,98946.66
2023-03-13T16:52:24.830Z,98958.78
2023-03-13T16:57:28.846Z,98956.34
2023-03-13T17:02:31.439Z,98966.91
2023-03-13T17:07:34.146Z,98980.44
2023-03-13T17:12:38.068Z,98987.50
2023-03-13T17:17:41.892Z,98977.84
2023-03-13T17:22:45.421Z,98987.66
2023-03-13T17:27:49.387Z,98975.03
2023-03-13T17:32:52.621Z,98959.09
2023-03-13T17:37:55.289Z,98956.97
2023-03-13T17:42:59.488Z,98961.59
2023-03-13T17:48:02.213Z,98950.66
2023-03-13T17:53:04.761Z,98945.34
2023-03-13T17:58:09.970Z,98941.00
2023-03-13T18:03:12.592Z,98946.22
2023-03-13T18:08:15.550Z,98926.34
2023-03-13T18:13:19.893Z,98929.91
2023-03-13T18:18:22.539Z,98929.22
2023-03-13T18:23:25.821Z,98927.72
2023-03-13T18:28:29.745Z,98697.44
2023-03-13T18:33:32.276Z,98884.13
2023-03-13T18:38:35.215Z,98925.81
2023-03-13T18:43:39.338Z,98920.19
2023-03-13T18:48:42.095Z,98941.44
2023-03-13T18:53:45.980Z,98892.66
2023-03-13T18:58:52.326Z,98931.81
2023-03-13T19:03:54.934Z,98921.38
2023-03-13T19:08:59.702Z,98921.53
2023-03-13T19:14:03.619Z,98918.72
2023-03-13T19:19:12.911Z,98911.09
2023-03-13T19:24:15.956Z,98904.28
2023-03-13T19:29:21.370Z,98905.81
2023-03-13T19:34:23.949Z,98915.97
2023-03-13T19:39:27.087Z,98900.84
2023-03-13T19:44:31.024Z,98885.38
2023-03-13T19:49:35.027Z,98869.09
2023-03-13T19:54:37.866Z,98873.00
2023-03-13T19:59:41.790Z,98863.94
2023-03-13T20:04:45.741Z,98860.38
2023-03-13T20:09:48.587Z,98859.75
2023-03-13T20:14:52.558Z,98854.13
2023-03-13T20:19:55.151Z,98858.00
2023-03-13T20:24:57.779Z,98869.47
2023-03-13T20:30:02.194Z,98869.16
2023-03-13T20:35:10.201Z,98867.50
2023-03-13T20:40:13.891Z,98868.50
2023-03-13T20:45:18.412Z,98858.19
2023-03-13T20:50:21.012Z,98856.03
2023-03-13T20:55:23.860Z,98863.84
2023-03-13T21:00:27.917Z,98907.03
2023-03-13T21:05:30.533Z,98889.91
2023-03-13T21:10:35.690Z,98850.06
2023-03-13T21:15:40.394Z,98879.47
2023-03-13T21:20:43.071Z,98877.47
2023-03-13T21:25:45.619Z,98870.97
2023-03-13T21:30:49.525Z,98867.16
2023-03-13T21:35:52.496Z,98850.88
2023-03-13T21:40:55.704Z,98821.34
2023-03-13T21:45:59.976Z,98771.69
2023-03-13T21:51:02.965Z,98724.16
2023-03-13T21:56:06.428Z,98814.69
2023-03-13T22:01:11.443Z,98805.38
2023-03-13T22:06:15.423Z,98816.00
2023-03-13T22:11:18.471Z,98815.50
2023-03-13T22:16:25.207Z,98826.44
2023-03-13T22:21:27.797Z,98843.88
2023-03-13T22:26:30.419Z,98845.72
2023-03-13T22:31:34.607Z,98838.03
2023-03-13T22:36:37.951Z,98840.00
2023-03-13T22:41:40.851Z,98801.44
2023-03-13T22:46:44.911Z,98831.72
2023-03-13T22:51:47.699Z,98822.75
2023-03-13T22:56:50.778Z,98828.56
2023-03-13T23:01:54.929Z,98832.47
2023-03-13T23:06:57.568Z,98792.59
2023-03-13T23:12:00.129Z,98816.56
2023-03-13T23:17:04.052Z,98793.03
2023-03-13T23:22:06.667Z,98788.50
2023-03-13T23:27:09.302Z,98796.81
2023-03-13T23:32:13.218Z,98816.19
2023-03-13T23:37:15.820Z,98815.38
2023-03-13T23:42:18.379Z,98822.00
2023-03-13T23:47:22.300Z,98799.63
2023-03-13T23:52:24.955Z,98794.34
2023-03-13T23:57:27.526Z,98799.28
